sensor_id;sensor_type;location;lat;lon;timestamp;P1;durP1;ratioP1;P2;durP2;ratioP2
18929;SDS011;43305;52.186;5.598;2023-03-14T00:01:59;20.70;;;4.70;;
18929;SDS011;43305;52.186;5.598;2023-03-14T00:04:26;17.50;;;4.50;;
18929;SDS011;43305;52.186;5.598;2023-03-14T00:06:52;19.83;;;5.13;;
18929;SDS011;43305;52.186;5.598;2023-03-14T00:09:19;21.17;;;5.47;;
18929;SDS011;43305;52.186;5.598;2023-03-14T00:11:46;18.20;;;5.07;;
18929;SDS011;43305;52.186;5.598;2023-03-14T00:14:13;21.10;;;5.03;;
18929;SDS011;43305;52.186;5.598;2023-03-14T00:16:41;22.92;;;5.38;;
18929;SDS011;43305;52.186;5.598;2023-03-14T00:19:12;22.02;;;5.00;;
18929;SDS011;43305;52.186;5.598;2023-03-14T00:21:39;25.52;;;4.93;;
18929;SDS011;43305;52.186;5.598;2023-03-14T00:24:06;19.55;;;4.40;;
18929;SDS011;43305;52.186;5.598;2023-03-14T00:26:34;23.90;;;4.50;;
18929;SDS011;43305;52.186;5.598;2023-03-14T00:29:00;17.52;;;4.20;;
18929;SDS011;43305;52.186;5.598;2023-03-14T00:31:27;17.67;;;3.75;;
18929;SDS011;43305;52.186;5.598;2023-03-14T00:33:57;24.30;;;3.83;;
18929;SDS011;43305;52.186;5.598;2023-03-14T00:36:25;18.27;;;3.70;;
18929;SDS011;43305;52.186;5.598;2023-03-14T00:38:52;17.33;;;3.10;;
18929;SDS011;43305;52.186;5.598;2023-03-14T00:41:20;14.65;;;2.97;;
18929;SDS011;43305;52.186;5.598;2023-03-14T00:43:48;17.10;;;3.05;;
18929;SDS011;43305;52.186;5.598;2023-03-14T00:46:16;19.48;;;3.38;;
18929;SDS011;43305;52.186;5.598;2023-03-14T00:48:43;15.13;;;3.25;;
18929;SDS011;43305;52.186;5.598;2023-03-14T00:51:11;17.48;;;2.90;;
18929;SDS011;43305;52.186;5.598;2023-03-14T00:53:40;19.20;;;2.80;;
18929;SDS011;43305;52.186;5.598;2023-03-14T00:56:08;16.00;;;2.53;;
18929;SDS011;43305;52.186;5.598;2023-03-14T00:58:36;15.57;;;2.95;;
18929;SDS011;43305;52.186;5.598;2023-03-14T01:01:07;12.25;;;2.17;;
18929;SDS011;43305;52.186;5.598;2023-03-14T01:03:36;10.80;;;2.13;;
18929;SDS011;43305;52.186;5.598;2023-03-14T01:06:07;14.90;;;2.63;;
18929;SDS011;43305;52.186;5.598;2023-03-14T01:08:35;16.02;;;2.28;;
18929;SDS011;43305;52.186;5.598;2023-03-14T01:11:06;18.80;;;3.33;;
18929;SDS011;43305;52.186;5.598;2023-03-14T01:13:34;14.57;;;2.47;;
18929;SDS011;43305;52.186;5.598;2023-03-14T01:16:01;17.50;;;2.40;;
18929;SDS011;43305;52.186;5.598;2023-03-14T01:18:30;13.30;;;2.90;;
18929;SDS011;43305;52.186;5.598;2023-03-14T01:20:57;9.18;;;2.05;;
18929;SDS011;43305;52.186;5.598;2023-03-14T01:23:24;16.73;;;2.60;;
18929;SDS011;43305;52.186;5.598;2023-03-14T01:25:50;11.57;;;2.40;;
18929;SDS011;43305;52.186;5.598;2023-03-14T01:28:19;12.27;;;2.55;;
18929;SDS011;43305;52.186;5.598;2023-03-14T01:30:46;10.73;;;2.53;;
18929;SDS011;43305;52.186;5.598;2023-03-14T01:33:12;11.68;;;2.00;;
18929;SDS011;43305;52.186;5.598;2023-03-14T01:35:39;9.80;;;1.88;;
18929;SDS011;43305;52.186;5.598;2023-03-14T01:38:06;16.08;;;2.03;;
18929;SDS011;43305;52.186;5.598;2023-03-14T01:40:33;11.15;;;2.00;;
18929;SDS011;43305;52.186;5.598;2023-03-14T01:43:05;12.05;;;2.00;;
18929;SDS011;43305;52.186;5.598;2023-03-14T01:48:49;12.75;;;2.53;;
18929;SDS011;43305;52.186;5.598;2023-03-14T01:51:30;13.60;;;2.10;;
18929;SDS011;43305;52.186;5.598;2023-03-14T01:54:05;10.98;;;2.00;;
18929;SDS011;43305;52.186;5.598;2023-03-14T01:56:36;11.13;;;2.20;;
18929;SDS011;43305;52.186;5.598;2023-03-14T01:59:04;12.63;;;2.30;;
18929;SDS011;43305;52.186;5.598;2023-03-14T02:01:33;10.48;;;2.28;;
18929;SDS011;43305;52.186;5.598;2023-03-14T02:04:04;17.83;;;2.70;;
18929;SDS011;43305;52.186;5.598;2023-03-14T02:06:35;9.85;;;1.80;;
18929;SDS011;43305;52.186;5.598;2023-03-14T02:09:08;13.10;;;2.28;;
18929;SDS011;43305;52.186;5.598;2023-03-14T02:11:35;14.30;;;2.08;;
18929;SDS011;43305;52.186;5.598;2023-03-14T02:14:02;11.60;;;2.35;;
18929;SDS011;43305;52.186;5.598;2023-03-14T02:16:30;11.70;;;2.15;;
18929;SDS011;43305;52.186;5.598;2023-03-14T02:18:57;15.07;;;2.10;;
18929;SDS011;43305;52.186;5.598;2023-03-14T02:21:27;14.55;;;2.63;;
18929;SDS011;43305;52.186;5.598;2023-03-14T02:24:06;11.02;;;2.33;;
18929;SDS011;43305;52.186;5.598;2023-03-14T02:26:40;17.50;;;2.10;;
18929;SDS011;43305;52.186;5.598;2023-03-14T02:29:12;10.88;;;2.30;;
18929;SDS011;43305;52.186;5.598;2023-03-14T02:31:39;14.75;;;2.40;;
18929;SDS011;43305;52.186;5.598;2023-03-14T02:34:06;10.02;;;2.00;;
18929;SDS011;43305;52.186;5.598;2023-03-14T02:36:33;12.25;;;1.85;;
18929;SDS011;43305;52.186;5.598;2023-03-14T02:39:03;11.40;;;2.20;;
18929;SDS011;43305;52.186;5.598;2023-03-14T02:41:36;10.70;;;2.33;;
18929;SDS011;43305;52.186;5.598;2023-03-14T02:44:03;13.00;;;1.90;;
18929;SDS011;43305;52.186;5.598;2023-03-14T02:46:31;15.50;;;1.90;;
18929;SDS011;43305;52.186;5.598;2023-03-14T02:49:00;14.38;;;2.35;;
18929;SDS011;43305;52.186;5.598;2023-03-14T02:51:29;12.95;;;2.60;;
18929;SDS011;43305;52.186;5.598;2023-03-14T02:53:58;13.82;;;2.88;;
18929;SDS011;43305;52.186;5.598;2023-03-14T02:56:25;13.85;;;3.20;;
18929;SDS011;43305;52.186;5.598;2023-03-14T02:58:52;9.65;;;2.80;;
18929;SDS011;43305;52.186;5.598;2023-03-14T03:01:19;15.88;;;3.38;;
18929;SDS011;43305;52.186;5.598;2023-03-14T03:03:47;12.65;;;2.83;;
18929;SDS011;43305;52.186;5.598;2023-03-14T03:06:14;10.98;;;3.10;;
18929;SDS011;43305;52.186;5.598;2023-03-14T03:08:41;12.23;;;3.35;;
18929;SDS011;43305;52.186;5.598;2023-03-14T03:11:08;8.77;;;3.20;;
18929;SDS011;43305;52.186;5.598;2023-03-14T03:13:35;11.90;;;3.40;;
18929;SDS011;43305;52.186;5.598;2023-03-14T03:16:02;13.18;;;3.15;;
18929;SDS011;43305;52.186;5.598;2023-03-14T03:18:29;13.02;;;3.70;;
18929;SDS011;43305;52.186;5.598;2023-03-14T03:21:00;11.85;;;3.78;;
18929;SDS011;43305;52.186;5.598;2023-03-14T03:23:27;9.20;;;3.17;;
18929;SDS011;43305;52.186;5.598;2023-03-14T03:25:54;16.40;;;3.45;;
18929;SDS011;43305;52.186;5.598;2023-03-14T03:28:21;11.50;;;3.10;;
18929;SDS011;43305;52.186;5.598;2023-03-14T03:30:48;11.38;;;3.25;;
18929;SDS011;43305;52.186;5.598;2023-03-14T03:33:24;13.88;;;3.08;;
18929;SDS011;43305;52.186;5.598;2023-03-14T03:35:51;12.32;;;2.90;;
18929;SDS011;43305;52.186;5.598;2023-03-14T03:38:20;14.18;;;3.22;;
18929;SDS011;43305;52.186;5.598;2023-03-14T03:40:47;16.05;;;3.47;;
18929;SDS011;43305;52.186;5.598;2023-03-14T03:43:14;18.40;;;2.70;;
18929;SDS011;43305;52.186;5.598;2023-03-14T03:45:41;16.15;;;3.47;;
18929;SDS011;43305;52.186;5.598;2023-03-14T03:48:08;10.00;;;2.60;;
18929;SDS011;43305;52.186;5.598;2023-03-14T03:50:35;12.30;;;3.28;;
18929;SDS011;43305;52.186;5.598;2023-03-14T03:53:01;15.80;;;2.90;;
18929;SDS011;43305;52.186;5.598;2023-03-14T03:55:30;15.68;;;2.85;;
18929;SDS011;43305;52.186;5.598;2023-03-14T03:57:56;14.63;;;2.90;;
18929;SDS011;43305;52.186;5.598;2023-03-14T04:00:23;10.70;;;2.63;;
18929;SDS011;43305;52.186;5.598;2023-03-14T04:02:50;16.50;;;3.00;;
18929;SDS011;43305;52.186;5.598;2023-03-14T04:05:17;11.13;;;3.00;;
18929;SDS011;43305;52.186;5.598;2023-03-14T04:07:46;14.23;;;3.08;;
18929;SDS011;43305;52.186;5.598;2023-03-14T04:10:13;13.85;;;3.35;;
18929;SDS011;43305;52.186;5.598;2023-03-14T04:12:41;13.77;;;2.55;;
18929;SDS011;43305;52.186;5.598;2023-03-14T04:15:08;14.45;;;2.88;;
18929;SDS011;43305;52.186;5.598;2023-03-14T04:17:35;10.73;;;2.92;;
18929;SDS011;43305;52.186;5.598;2023-03-14T04:20:03;13.57;;;2.83;;
18929;SDS011;43305;52.186;5.598;2023-03-14T04:22:33;12.90;;;2.50;;
18929;SDS011;43305;52.186;5.598;2023-03-14T04:25:00;8.23;;;2.53;;
18929;SDS011;43305;52.186;5.598;2023-03-14T04:27:27;17.35;;;2.75;;
18929;SDS011;43305;52.186;5.598;2023-03-14T04:29:55;17.08;;;2.60;;
18929;SDS011;43305;52.186;5.598;2023-03-14T04:32:22;11.05;;;2.33;;
18929;SDS011;43305;52.186;5.598;2023-03-14T04:34:49;15.23;;;2.92;;
18929;SDS011;43305;52.186;5.598;2023-03-14T04:37:16;13.77;;;2.20;;
18929;SDS011;43305;52.186;5.598;2023-03-14T04:39:42;13.60;;;2.50;;
18929;SDS011;43305;52.186;5.598;2023-03-14T04:42:09;15.48;;;2.38;;
18929;SDS011;43305;52.186;5.598;2023-03-14T04:44:36;21.65;;;3.50;;
18929;SDS011;43305;52.186;5.598;2023-03-14T04:47:04;14.60;;;3.03;;
18929;SDS011;43305;52.186;5.598;2023-03-14T04:49:31;10.73;;;2.08;;
18929;SDS011;43305;52.186;5.598;2023-03-14T04:51:58;11.90;;;2.30;;
18929;SDS011;43305;52.186;5.598;2023-03-14T04:54:25;12.40;;;2.70;;
18929;SDS011;43305;52.186;5.598;2023-03-14T04:56:52;13.27;;;2.83;;
18929;SDS011;43305;52.186;5.598;2023-03-14T04:59:21;9.55;;;2.20;;
18929;SDS011;43305;52.186;5.598;2023-03-14T05:01:50;11.00;;;2.58;;
18929;SDS011;43305;52.186;5.598;2023-03-14T05:04:18;14.32;;;2.60;;
18929;SDS011;43305;52.186;5.598;2023-03-14T05:06:45;11.98;;;2.97;;
18929;SDS011;43305;52.186;5.598;2023-03-14T05:09:17;13.13;;;3.13;;
18929;SDS011;43305;52.186;5.598;2023-03-14T05:11:44;11.98;;;2.55;;
18929;SDS011;43305;52.186;5.598;2023-03-14T05:14:11;11.30;;;2.78;;
18929;SDS011;43305;52.186;5.598;2023-03-14T05:16:38;14.73;;;3.13;;
18929;SDS011;43305;52.186;5.598;2023-03-14T05:19:05;12.70;;;3.17;;
18929;SDS011;43305;52.186;5.598;2023-03-14T05:21:33;11.23;;;2.72;;
18929;SDS011;43305;52.186;5.598;2023-03-14T05:24:00;12.88;;;2.75;;
18929;SDS011;43305;52.186;5.598;2023-03-14T05:26:27;11.93;;;3.22;;
18929;SDS011;43305;52.186;5.598;2023-03-14T05:28:53;11.93;;;3.47;;
18929;SDS011;43305;52.186;5.598;2023-03-14T05:31:20;20.67;;;2.97;;
18929;SDS011;43305;52.186;5.598;2023-03-14T05:33:47;10.75;;;2.92;;
18929;SDS011;43305;52.186;5.598;2023-03-14T05:36:14;12.30;;;3.28;;
18929;SDS011;43305;52.186;5.598;2023-03-14T05:38:42;7.68;;;3.15;;
18929;SDS011;43305;52.186;5.598;2023-03-14T05:41:09;11.73;;;3.25;;
18929;SDS011;43305;52.186;5.598;2023-03-14T05:43:36;12.75;;;3.17;;
18929;SDS011;43305;52.186;5.598;2023-03-14T05:46:03;12.30;;;3.30;;
18929;SDS011;43305;52.186;5.598;2023-03-14T05:48:30;15.75;;;3.78;;
18929;SDS011;43305;52.186;5.598;2023-03-14T05:50:57;14.05;;;3.85;;
18929;SDS011;43305;52.186;5.598;2023-03-14T05:53:25;12.15;;;4.20;;
18929;SDS011;43305;52.186;5.598;2023-03-14T05:55:55;13.57;;;4.05;;
18929;SDS011;43305;52.186;5.598;2023-03-14T05:58:23;15.75;;;4.45;;
18929;SDS011;43305;52.186;5.598;2023-03-14T06:00:50;16.40;;;4.32;;
18929;SDS011;43305;52.186;5.598;2023-03-14T06:03:17;12.02;;;4.35;;
18929;SDS011;43305;52.186;5.598;2023-03-14T06:05:49;11.65;;;4.20;;
18929;SDS011;43305;52.186;5.598;2023-03-14T06:08:16;14.48;;;4.85;;
18929;SDS011;43305;52.186;5.598;2023-03-14T06:10:42;17.05;;;4.35;;
18929;SDS011;43305;52.186;5.598;2023-03-14T06:13:11;13.38;;;4.65;;
18929;SDS011;43305;52.186;5.598;2023-03-14T06:15:38;16.58;;;5.50;;
18929;SDS011;43305;52.186;5.598;2023-03-14T06:18:04;11.88;;;5.07;;
18929;SDS011;43305;52.186;5.598;2023-03-14T06:20:31;13.63;;;5.32;;
18929;SDS011;43305;52.186;5.598;2023-03-14T06:23:00;14.68;;;5.07;;
18929;SDS011;43305;52.186;5.598;2023-03-14T06:25:27;14.65;;;5.20;;
18929;SDS011;43305;52.186;5.598;2023-03-14T06:27:54;10.95;;;5.28;;
18929;SDS011;43305;52.186;5.598;2023-03-14T06:30:22;15.18;;;5.07;;
18929;SDS011;43305;52.186;5.598;2023-03-14T06:32:49;17.08;;;6.00;;
18929;SDS011;43305;52.186;5.598;2023-03-14T06:35:16;20.17;;;5.85;;
18929;SDS011;43305;52.186;5.598;2023-03-14T06:37:43;16.55;;;5.90;;
18929;SDS011;43305;52.186;5.598;2023-03-14T06:40:10;15.95;;;5.88;;
18929;SDS011;43305;52.186;5.598;2023-03-14T06:42:41;21.95;;;6.40;;
18929;SDS011;43305;52.186;5.598;2023-03-14T06:45:08;16.33;;;6.72;;
18929;SDS011;43305;52.186;5.598;2023-03-14T06:47:37;18.90;;;6.07;;
18929;SDS011;43305;52.186;5.598;2023-03-14T06:50:05;19.15;;;7.25;;
18929;SDS011;43305;52.186;5.598;2023-03-14T06:52:32;15.63;;;7.10;;
18929;SDS011;43305;52.186;5.598;2023-03-14T06:54:59;15.15;;;6.30;;
18929;SDS011;43305;52.186;5.598;2023-03-14T06:57:26;14.77;;;5.47;;
18929;SDS011;43305;52.186;5.598;2023-03-14T06:59:55;4.50;;;1.50;;
18929;SDS011;43305;52.186;5.598;2023-03-14T07:02:22;5.50;;;1.50;;
18929;SDS011;43305;52.186;5.598;2023-03-14T07:04:50;5.20;;;1.75;;
18929;SDS011;43305;52.186;5.598;2023-03-14T07:07:17;4.15;;;1.40;;
18929;SDS011;43305;52.186;5.598;2023-03-14T07:09:44;7.47;;;1.48;;
18929;SDS011;43305;52.186;5.598;2023-03-14T07:12:11;6.53;;;1.50;;
18929;SDS011;43305;52.186;5.598;2023-03-14T07:14:38;4.05;;;1.30;;
18929;SDS011;43305;52.186;5.598;2023-03-14T07:17:04;3.72;;;1.38;;
18929;SDS011;43305;52.186;5.598;2023-03-14T07:19:31;4.53;;;1.20;;
18929;SDS011;43305;52.186;5.598;2023-03-14T07:21:59;6.15;;;0.77;;
18929;SDS011;43305;52.186;5.598;2023-03-14T07:24:26;3.00;;;1.10;;
18929;SDS011;43305;52.186;5.598;2023-03-14T07:26:53;5.63;;;1.10;;
18929;SDS011;43305;52.186;5.598;2023-03-14T07:29:20;5.40;;;1.20;;
18929;SDS011;43305;52.186;5.598;2023-03-14T07:31:47;4.78;;;1.00;;
18929;SDS011;43305;52.186;5.598;2023-03-14T07:34:16;3.25;;;0.88;;
18929;SDS011;43305;52.186;5.598;2023-03-14T07:36:44;2.13;;;0.90;;
18929;SDS011;43305;52.186;5.598;2023-03-14T07:39:19;2.83;;;1.20;;
18929;SDS011;43305;52.186;5.598;2023-03-14T07:41:46;4.82;;;0.90;;
18929;SDS011;43305;52.186;5.598;2023-03-14T07:44:13;5.03;;;0.90;;
18929;SDS011;43305;52.186;5.598;2023-03-14T07:46:40;2.97;;;0.80;;
18929;SDS011;43305;52.186;5.598;2023-03-14T07:49:07;4.10;;;1.20;;
18929;SDS011;43305;52.186;5.598;2023-03-14T07:51:34;3.85;;;1.20;;
18929;SDS011;43305;52.186;5.598;2023-03-14T07:54:00;16.65;;;1.67;;
18929;SDS011;43305;52.186;5.598;2023-03-14T07:56:29;4.38;;;1.48;;
18929;SDS011;43305;52.186;5.598;2023-03-14T07:58:56;3.67;;;1.20;;
18929;SDS011;43305;52.186;5.598;2023-03-14T08:01:23;7.10;;;1.30;;
18929;SDS011;43305;52.186;5.598;2023-03-14T08:03:50;9.00;;;1.15;;
18929;SDS011;43305;52.186;5.598;2023-03-14T08:06:16;10.75;;;1.15;;
18929;SDS011;43305;52.186;5.598;2023-03-14T08:08:43;11.80;;;1.30;;
18929;SDS011;43305;52.186;5.598;2023-03-14T08:11:10;9.45;;;1.08;;
18929;SDS011;43305;52.186;5.598;2023-03-14T08:13:38;6.65;;;0.80;;
18929;SDS011;43305;52.186;5.598;2023-03-14T08:16:05;7.22;;;1.00;;
18929;SDS011;43305;52.186;5.598;2023-03-14T08:18:33;5.07;;;1.00;;
18929;SDS011;43305;52.186;5.598;2023-03-14T08:21:00;11.20;;;0.98;;
18929;SDS011;43305;52.186;5.598;2023-03-14T08:23:26;8.63;;;0.93;;
18929;SDS011;43305;52.186;5.598;2023-03-14T08:25:53;6.53;;;1.10;;
18929;SDS011;43305;52.186;5.598;2023-03-14T08:28:20;13.18;;;1.55;;
18929;SDS011;43305;52.186;5.598;2023-03-14T08:30:48;8.00;;;0.90;;
18929;SDS011;43305;52.186;5.598;2023-03-14T08:33:15;8.75;;;1.00;;
18929;SDS011;43305;52.186;5.598;2023-03-14T08:35:44;5.68;;;0.60;;
18929;SDS011;43305;52.186;5.598;2023-03-14T08:38:11;7.05;;;0.73;;
18929;SDS011;43305;52.186;5.598;2023-03-14T08:40:38;6.90;;;0.70;;
18929;SDS011;43305;52.186;5.598;2023-03-14T08:43:05;5.80;;;0.77;;
18929;SDS011;43305;52.186;5.598;2023-03-14T08:45:31;5.93;;;0.60;;
18929;SDS011;43305;52.186;5.598;2023-03-14T08:47:59;4.40;;;0.50;;
18929;SDS011;43305;52.186;5.598;2023-03-14T08:50:26;4.60;;;0.50;;
18929;SDS011;43305;52.186;5.598;2023-03-14T08:52:53;5.00;;;0.85;;
18929;SDS011;43305;52.186;5.598;2023-03-14T08:55:22;6.00;;;0.45;;
18929;SDS011;43305;52.186;5.598;2023-03-14T08:57:49;5.88;;;0.40;;
18929;SDS011;43305;52.186;5.598;2023-03-14T09:00:16;6.63;;;0.50;;
18929;SDS011;43305;52.186;5.598;2023-03-14T09:02:44;1.52;;;0.40;;
18929;SDS011;43305;52.186;5.598;2023-03-14T09:05:15;3.38;;;0.80;;
18929;SDS011;43305;52.186;5.598;2023-03-14T09:07:43;8.20;;;0.77;;
18929;SDS011;43305;52.186;5.598;2023-03-14T09:10:10;6.00;;;0.70;;
18929;SDS011;43305;52.186;5.598;2023-03-14T09:12:37;5.07;;;0.82;;
18929;SDS011;43305;52.186;5.598;2023-03-14T09:15:04;6.05;;;0.88;;
18929;SDS011;43305;52.186;5.598;2023-03-14T09:17:32;7.53;;;0.80;;
18929;SDS011;43305;52.186;5.598;2023-03-14T09:19:59;9.70;;;1.20;;
18929;SDS011;43305;52.186;5.598;2023-03-14T09:22:27;9.77;;;1.08;;
18929;SDS011;43305;52.186;5.598;2023-03-14T09:24:53;7.05;;;1.10;;
18929;SDS011;43305;52.186;5.598;2023-03-14T09:27:20;8.07;;;1.30;;
18929;SDS011;43305;52.186;5.598;2023-03-14T09:29:47;9.00;;;1.20;;
18929;SDS011;43305;52.186;5.598;2023-03-14T09:32:14;19.00;;;1.95;;
18929;SDS011;43305;52.186;5.598;2023-03-14T09:34:43;9.32;;;1.30;;
18929;SDS011;43305;52.186;5.598;2023-03-14T09:37:11;12.00;;;2.03;;
18929;SDS011;43305;52.186;5.598;2023-03-14T09:39:39;14.57;;;1.38;;
18929;SDS011;43305;52.186;5.598;2023-03-14T09:42:06;9.45;;;1.33;;
18929;SDS011;43305;52.186;5.598;2023-03-14T09:44:49;13.90;;;1.50;;
18929;SDS011;43305;52.186;5.598;2023-03-14T09:47:20;19.90;;;1.90;;
18929;SDS011;43305;52.186;5.598;2023-03-14T09:49:49;11.55;;;1.85;;
18929;SDS011;43305;52.186;5.598;2023-03-14T09:52:16;16.70;;;1.77;;
18929;SDS011;43305;52.186;5.598;2023-03-14T09:54:49;15.05;;;1.83;;
18929;SDS011;43305;52.186;5.598;2023-03-14T09:57:18;15.82;;;2.20;;
18929;SDS011;43305;52.186;5.598;2023-03-14T09:59:47;13.40;;;1.90;;
18929;SDS011;43305;52.186;5.598;2023-03-14T10:02:18;18.80;;;1.83;;
18929;SDS011;43305;52.186;5.598;2023-03-14T10:04:46;21.73;;;2.17;;
18929;SDS011;43305;52.186;5.598;2023-03-14T10:07:15;15.82;;;2.35;;
18929;SDS011;43305;52.186;5.598;2023-03-14T10:09:45;15.48;;;2.20;;
18929;SDS011;43305;52.186;5.598;2023-03-14T10:12:16;16.27;;;2.20;;
18929;SDS011;43305;52.186;5.598;2023-03-14T10:14:45;25.80;;;2.55;;
18929;SDS011;43305;52.186;5.598;2023-03-14T10:17:14;24.60;;;2.72;;
18929;SDS011;43305;52.186;5.598;2023-03-14T10:19:52;19.40;;;2.40;;
18929;SDS011;43305;52.186;5.598;2023-03-14T10:22:20;20.08;;;2.10;;
18929;SDS011;43305;52.186;5.598;2023-03-14T10:24:51;15.75;;;2.15;;
18929;SDS011;43305;52.186;5.598;2023-03-14T10:27:23;17.65;;;1.90;;
18929;SDS011;43305;52.186;5.598;2023-03-14T10:29:55;17.92;;;2.08;;
18929;SDS011;43305;52.186;5.598;2023-03-14T10:32:28;16.20;;;2.10;;
18929;SDS011;43305;52.186;5.598;2023-03-14T10:35:05;17.83;;;2.13;;
18929;SDS011;43305;52.186;5.598;2023-03-14T10:37:51;19.40;;;2.40;;
18929;SDS011;43305;52.186;5.598;2023-03-14T10:40:24;16.33;;;2.25;;
18929;SDS011;43305;52.186;5.598;2023-03-14T10:42:55;11.98;;;1.67;;
18929;SDS011;43305;52.186;5.598;2023-03-14T10:45:34;19.05;;;2.65;;
18929;SDS011;43305;52.186;5.598;2023-03-14T10:48:07;20.08;;;2.60;;
18929;SDS011;43305;52.186;5.598;2023-03-14T10:50:48;23.95;;;2.83;;
18929;SDS011;43305;52.186;5.598;2023-03-14T10:53:16;14.05;;;2.40;;
18929;SDS011;43305;52.186;5.598;2023-03-14T10:55:44;20.00;;;2.45;;
18929;SDS011;43305;52.186;5.598;2023-03-14T10:58:22;22.80;;;2.85;;
18929;SDS011;43305;52.186;5.598;2023-03-14T11:00:52;16.35;;;2.47;;
18929;SDS011;43305;52.186;5.598;2023-03-14T11:03:28;20.08;;;2.65;;
18929;SDS011;43305;52.186;5.598;2023-03-14T11:05:59;21.15;;;3.47;;
18929;SDS011;43305;52.186;5.598;2023-03-14T11:08:34;19.13;;;2.45;;
18929;SDS011;43305;52.186;5.598;2023-03-14T11:11:08;17.60;;;2.92;;
18929;SDS011;43305;52.186;5.598;2023-03-14T11:13:43;24.60;;;2.33;;
18929;SDS011;43305;52.186;5.598;2023-03-14T11:16:19;18.15;;;1.90;;
18929;SDS011;43305;52.186;5.598;2023-03-14T11:19:17;18.67;;;2.63;;
18929;SDS011;43305;52.186;5.598;2023-03-14T11:21:59;16.30;;;2.40;;
18929;SDS011;43305;52.186;5.598;2023-03-14T11:27:30;21.02;;;2.50;;
18929;SDS011;43305;52.186;5.598;2023-03-14T11:30:05;25.63;;;2.63;;
18929;SDS011;43305;52.186;5.598;2023-03-14T11:32:45;13.02;;;1.75;;
18929;SDS011;43305;52.186;5.598;2023-03-14T11:35:17;18.42;;;2.25;;
18929;SDS011;43305;52.186;5.598;2023-03-14T11:37:52;16.00;;;2.03;;
18929;SDS011;43305;52.186;5.598;2023-03-14T11:40:21;15.80;;;1.92;;
18929;SDS011;43305;52.186;5.598;2023-03-14T11:42:51;23.65;;;2.45;;
18929;SDS011;43305;52.186;5.598;2023-03-14T11:45:27;14.13;;;1.73;;
18929;SDS011;43305;52.186;5.598;2023-03-14T11:48:04;10.38;;;1.70;;
18929;SDS011;43305;52.186;5.598;2023-03-14T11:50:49;12.45;;;2.00;;
18929;SDS011;43305;52.186;5.598;2023-03-14T11:53:21;14.65;;;1.98;;
18929;SDS011;43305;52.186;5.598;2023-03-14T11:55:55;17.45;;;2.25;;
18929;SDS011;43305;52.186;5.598;2023-03-14T11:58:23;8.23;;;1.70;;
18929;SDS011;43305;52.186;5.598;2023-03-14T12:00:54;14.57;;;1.67;;
18929;SDS011;43305;52.186;5.598;2023-03-14T12:03:25;10.48;;;1.48;;
18929;SDS011;43305;52.186;5.598;2023-03-14T12:05:59;10.75;;;1.40;;
18929;SDS011;43305;52.186;5.598;2023-03-14T12:08:42;13.18;;;1.90;;
18929;SDS011;43305;52.186;5.598;2023-03-14T12:11:17;10.48;;;1.80;;
18929;SDS011;43305;52.186;5.598;2023-03-14T12:13:48;14.68;;;1.52;;
18929;SDS011;43305;52.186;5.598;2023-03-14T12:22:08;15.50;;;2.03;;
18929;SDS011;43305;52.186;5.598;2023-03-14T12:24:47;13.00;;;1.83;;
18929;SDS011;43305;52.186;5.598;2023-03-14T12:30:24;10.20;;;1.58;;
18929;SDS011;43305;52.186;5.598;2023-03-14T12:35:59;7.47;;;1.45;;
18929;SDS011;43305;52.186;5.598;2023-03-14T12:41:36;8.52;;;1.48;;
18929;SDS011;43305;52.186;5.598;2023-03-14T12:50:13;8.70;;;1.40;;
18929;SDS011;43305;52.186;5.598;2023-03-14T12:52:48;5.95;;;1.08;;
18929;SDS011;43305;52.186;5.598;2023-03-14T12:55:26;4.88;;;1.02;;
18929;SDS011;43305;52.186;5.598;2023-03-14T12:58:03;8.15;;;1.15;;
18929;SDS011;43305;52.186;5.598;2023-03-14T13:00:38;7.15;;;0.90;;
18929;SDS011;43305;52.186;5.598;2023-03-14T13:03:13;8.40;;;1.30;;
18929;SDS011;43305;52.186;5.598;2023-03-14T13:05:53;3.97;;;1.00;;
18929;SDS011;43305;52.186;5.598;2023-03-14T13:08:37;7.93;;;1.10;;
18929;SDS011;43305;52.186;5.598;2023-03-14T13:11:05;7.70;;;1.40;;
18929;SDS011;43305;52.186;5.598;2023-03-14T13:13:36;8.02;;;1.55;;
18929;SDS011;43305;52.186;5.598;2023-03-14T13:16:09;5.65;;;1.00;;
18929;SDS011;43305;52.186;5.598;2023-03-14T13:18:43;7.03;;;1.13;;
18929;SDS011;43305;52.186;5.598;2023-03-14T13:21:12;8.70;;;1.40;;
18929;SDS011;43305;52.186;5.598;2023-03-14T13:23:55;5.30;;;1.08;;
18929;SDS011;43305;52.186;5.598;2023-03-14T13:26:24;6.55;;;1.30;;
18929;SDS011;43305;52.186;5.598;2023-03-14T13:28:58;7.25;;;1.30;;
18929;SDS011;43305;52.186;5.598;2023-03-14T13:31:26;9.30;;;1.55;;
18929;SDS011;43305;52.186;5.598;2023-03-14T13:33:56;6.78;;;1.40;;
18929;SDS011;43305;52.186;5.598;2023-03-14T13:36:24;7.15;;;1.67;;
18929;SDS011;43305;52.186;5.598;2023-03-14T13:38:56;7.70;;;1.75;;
18929;SDS011;43305;52.186;5.598;2023-03-14T13:41:24;11.27;;;1.48;;
18929;SDS011;43305;52.186;5.598;2023-03-14T13:43:51;7.25;;;1.42;;
18929;SDS011;43305;52.186;5.598;2023-03-14T13:46:28;7.80;;;1.30;;
18929;SDS011;43305;52.186;5.598;2023-03-14T13:48:56;6.03;;;0.95;;
18929;SDS011;43305;52.186;5.598;2023-03-14T13:51:25;5.15;;;1.17;;
18929;SDS011;43305;52.186;5.598;2023-03-14T13:53:57;10.10;;;1.10;;
18929;SDS011;43305;52.186;5.598;2023-03-14T13:56:26;7.80;;;1.48;;
18929;SDS011;43305;52.186;5.598;2023-03-14T13:58:55;5.88;;;0.85;;
18929;SDS011;43305;52.186;5.598;2023-03-14T14:01:22;6.32;;;1.10;;
18929;SDS011;43305;52.186;5.598;2023-03-14T14:03:51;5.03;;;1.10;;
18929;SDS011;43305;52.186;5.598;2023-03-14T14:06:22;8.68;;;1.35;;
18929;SDS011;43305;52.186;5.598;2023-03-14T14:08:55;5.10;;;1.00;;
18929;SDS011;43305;52.186;5.598;2023-03-14T14:11:26;4.07;;;0.90;;
18929;SDS011;43305;52.186;5.598;2023-03-14T14:14:04;6.82;;;0.90;;
18929;SDS011;43305;52.186;5.598;2023-03-14T14:16:36;8.25;;;1.08;;
18929;SDS011;43305;52.186;5.598;2023-03-14T14:19:03;6.50;;;1.17;;
18929;SDS011;43305;52.186;5.598;2023-03-14T14:21:30;6.70;;;1.13;;
18929;SDS011;43305;52.186;5.598;2023-03-14T14:23:57;5.47;;;1.05;;
18929;SDS011;43305;52.186;5.598;2023-03-14T14:26:26;11.15;;;1.00;;
18929;SDS011;43305;52.186;5.598;2023-03-14T14:29:01;6.80;;;1.05;;
18929;SDS011;43305;52.186;5.598;2023-03-14T14:31:29;3.80;;;0.88;;
18929;SDS011;43305;52.186;5.598;2023-03-14T14:33:56;6.82;;;0.80;;
18929;SDS011;43305;52.186;5.598;2023-03-14T14:36:25;5.00;;;0.88;;
18929;SDS011;43305;52.186;5.598;2023-03-14T14:38:59;5.53;;;0.98;;
18929;SDS011;43305;52.186;5.598;2023-03-14T14:41:31;5.70;;;1.15;;
18929;SDS011;43305;52.186;5.598;2023-03-14T14:44:00;9.40;;;1.30;;
18929;SDS011;43305;52.186;5.598;2023-03-14T14:46:30;11.13;;;1.15;;
18929;SDS011;43305;52.186;5.598;2023-03-14T14:49:02;8.80;;;1.20;;
18929;SDS011;43305;52.186;5.598;2023-03-14T14:51:32;5.10;;;1.20;;
18929;SDS011;43305;52.186;5.598;2023-03-14T14:54:04;7.85;;;1.33;;
18929;SDS011;43305;52.186;5.598;2023-03-14T14:56:39;11.82;;;1.70;;
18929;SDS011;43305;52.186;5.598;2023-03-14T14:59:07;9.23;;;1.50;;
18929;SDS011;43305;52.186;5.598;2023-03-14T15:01:46;9.88;;;1.58;;
18929;SDS011;43305;52.186;5.598;2023-03-14T15:04:16;8.68;;;1.50;;
18929;SDS011;43305;52.186;5.598;2023-03-14T15:06:43;10.05;;;1.50;;
18929;SDS011;43305;52.186;5.598;2023-03-14T15:09:13;10.45;;;1.10;;
18929;SDS011;43305;52.186;5.598;2023-03-14T15:11:42;11.00;;;1.33;;
18929;SDS011;43305;52.186;5.598;2023-03-14T15:14:09;11.73;;;1.30;;
18929;SDS011;43305;52.186;5.598;2023-03-14T15:16:36;14.00;;;1.67;;
18929;SDS011;43305;52.186;5.598;2023-03-14T15:19:08;10.88;;;1.70;;